createdAt,value
2022-09-28T00:01:19.995Z,25.00
2022-09-28T00:03:50.401Z,25.00
2022-09-28T00:06:21.858Z,25.00
2022-09-28T00:08:50.022Z,24.90
2022-09-28T00:11:19.957Z,24.80
2022-09-28T00:13:51.363Z,24.90
2022-09-28T00:16:23.054Z,24.80
2022-09-28T00:18:51.859Z,24.90
2022-09-28T00:21:23.056Z,24.90
2022-09-28T00:23:55.874Z,25.00
2022-09-28T00:26:24.492Z,25.00
2022-09-28T00:28:54.318Z,25.00
2022-09-28T00:31:23.001Z,25.10
2022-09-28T00:33:52.262Z,25.00
2022-09-28T00:36:20.919Z,25.10
2022-09-28T00:38:49.262Z,25.00
2022-09-28T00:41:17.620Z,25.00
2022-09-28T00:43:45.755Z,25.00
2022-09-28T00:46:22.548Z,24.90
2022-09-28T00:49:01.579Z,25.00
2022-09-28T00:51:31.561Z,25.00
2022-09-28T00:54:02.464Z,25.00
2022-09-28T00:56:34.134Z,25.00
2022-09-28T00:59:02.794Z,24.90
2022-09-28T01:01:31.140Z,24.90
2022-09-28T01:04:00.279Z,24.80
2022-09-28T01:06:31.742Z,24.80
2022-09-28T01:09:04.986Z,24.70
2022-09-28T01:11:35.773Z,24.70
2022-09-28T01:14:09.710Z,24.70
2022-09-28T01:16:56.100Z,24.70
2022-09-28T01:20:06.943Z,24.70
2022-09-28T01:23:06.962Z,24.80
2022-09-28T01:25:41.786Z,24.90
2022-09-28T01:28:15.080Z,24.90
2022-09-28T01:31:09.372Z,24.90
2022-09-28T01:33:51.653Z,24.90
2022-09-28T01:36:27.460Z,24.90
2022-09-28T01:39:05.030Z,24.90
2022-09-28T01:41:35.548Z,24.90
2022-09-28T01:44:08.750Z,24.90
2022-09-28T01:46:47.235Z,24.90
2022-09-28T01:49:24.595Z,24.90
2022-09-28T01:52:09.633Z,25.00
2022-09-28T01:54:56.279Z,25.00
2022-09-28T01:58:06.453Z,24.90
2022-09-28T02:00:36.676Z,24.90
2022-09-28T02:03:37.744Z,25.00
2022-09-28T02:06:34.403Z,25.00
2022-09-28T02:09:15.012Z,25.00
2022-09-28T02:11:53.361Z,25.00
2022-09-28T02:14:22.287Z,25.00
2022-09-28T02:16:54.211Z,25.00
2022-09-28T02:19:30.823Z,25.00
2022-09-28T02:22:05.125Z,25.10
2022-09-28T02:24:47.033Z,25.10
2022-09-28T02:27:30.017Z,25.10
2022-09-28T02:29:58.276Z,25.10
2022-09-28T02:32:29.071Z,25.10
2022-09-28T02:34:57.548Z,25.10
2022-09-28T02:37:27.163Z,25.10
2022-09-28T02:39:55.484Z,25.10
2022-09-28T02:42:23.728Z,25.10
2022-09-28T02:44:57.839Z,25.10
2022-09-28T02:47:54.369Z,25.10
2022-09-28T02:50:49.642Z,25.10
2022-09-28T02:53:40.621Z,25.10
2022-09-28T02:56:39.711Z,25.10
2022-09-28T02:59:20.021Z,25.10
2022-09-28T03:02:03.318Z,25.00
2022-09-28T03:04:42.302Z,25.10
2022-09-28T03:07:51.022Z,25.00
2022-09-28T03:10:36.775Z,25.10
2022-09-28T03:13:06.408Z,25.00
2022-09-28T03:15:37.051Z,25.00
2022-09-28T03:18:05.508Z,25.00
2022-09-28T03:20:34.714Z,25.00
2022-09-28T03:23:25.520Z,25.00
2022-09-28T03:25:53.963Z,25.00
2022-09-28T03:28:22.603Z,25.00
2022-09-28T03:30:51.350Z,25.00
2022-09-28T03:33:21.396Z,25.00
2022-09-28T03:35:51.183Z,24.90
2022-09-28T03:38:20.054Z,25.00
2022-09-28T03:40:56.631Z,24.90
2022-09-28T03:43:26.510Z,25.00
2022-09-28T03:46:02.914Z,25.00
2022-09-28T03:48:36.198Z,25.00
2022-09-28T03:51:06.742Z,24.90
2022-09-28T03:53:35.716Z,24.90
2022-09-28T03:56:09.616Z,25.00
2022-09-28T03:58:38.487Z,24.90
2022-09-28T04:01:14.102Z,25.00
2022-09-28T04:03:46.901Z,25.00
2022-09-28T04:06:15.831Z,24.90
2022-09-28T04:08:44.265Z,24.90
2022-09-28T04:11:12.698Z,24.90
2022-09-28T04:13:41.407Z,24.90
2022-09-28T04:16:12.367Z,24.80
2022-09-28T04:18:44.575Z,24.80
2022-09-28T04:21:34.419Z,24.80
2022-09-28T04:24:10.022Z,24.80
2022-09-28T04:26:38.461Z,24.80
2022-09-28T04:29:07.075Z,24.80
2022-09-28T04:31:49.916Z,24.80
2022-09-28T04:34:22.766Z,24.80
2022-09-28T04:36:51.305Z,24.80
2022-09-28T04:39:20.279Z,24.80
2022-09-28T04:41:54.506Z,24.80
2022-09-28T04:44:22.745Z,24.70
2022-09-28T04:46:56.818Z,24.70
2022-09-28T04:49:30.821Z,24.80
2022-09-28T04:52:18.366Z,24.80
2022-09-28T04:54:49.884Z,24.80
2022-09-28T04:57:18.390Z,24.70
2022-09-28T04:59:46.423Z,24.70
2022-09-28T05:02:14.607Z,24.70
2022-09-28T05:05:14.749Z,24.70
2022-09-28T05:08:09.090Z,24.70
2022-09-28T05:10:37.501Z,24.60
2022-09-28T05:13:06.122Z,24.60
2022-09-28T05:15:38.731Z,24.60
2022-09-28T05:18:07.856Z,24.60
2022-09-28T05:20:58.579Z,24.60
2022-09-28T05:23:27.633Z,24.60
2022-09-28T05:26:02.922Z,24.60
2022-09-28T05:28:33.486Z,24.50
2022-09-28T05:31:20.233Z,24.60
2022-09-28T05:34:06.619Z,24.50
2022-09-28T05:36:35.193Z,24.50
2022-09-28T05:39:03.383Z,24.50
2022-09-28T05:41:32.137Z,24.50
2022-09-28T05:44:01.636Z,24.50
2022-09-28T05:46:31.311Z,24.60
2022-09-28T05:49:02.976Z,24.60
2022-09-28T05:51:31.544Z,24.60
2022-09-28T05:54:04.685Z,24.60
2022-09-28T05:56:35.510Z,24.60
2022-09-28T05:59:06.546Z,24.60
2022-09-28T06:01:34.925Z,24.60
2022-09-28T06:04:08.847Z,24.60
2022-09-28T06:06:38.054Z,24.60
2022-09-28T06:09:06.168Z,24.60
2022-09-28T06:11:47.113Z,24.60
2022-09-28T06:14:28.602Z,24.60
2022-09-28T06:16:57.085Z,24.60
2022-09-28T06:19:25.464Z,24.50
2022-09-28T06:22:11.858Z,24.60
2022-09-28T06:24:47.385Z,24.50
2022-09-28T06:27:15.721Z,24.50
2022-09-28T06:29:43.771Z,24.50
2022-09-28T06:32:13.333Z,24.50
2022-09-28T06:34:42.327Z,24.50
2022-09-28T06:37:10.656Z,24.50
2022-09-28T06:39:38.808Z,24.50
2022-09-28T06:42:07.051Z,24.50
2022-09-28T06:44:53.560Z,24.50
2022-09-28T06:47:38.509Z,24.50
2022-09-28T06:50:30.150Z,24.50
2022-09-28T06:53:28.425Z,24.50
2022-09-28T06:56:16.875Z,24.50
2022-09-28T06:58:46.051Z,24.50
2022-09-28T07:01:14.610Z,24.50
2022-09-28T07:03:59.440Z,24.50
2022-09-28T07:06:49.264Z,24.60
2022-09-28T07:09:55.229Z,24.60
2022-09-28T07:12:41.623Z,24.70
2022-09-28T07:15:27.113Z,24.60
2022-09-28T07:18:05.972Z,24.70
2022-09-28T07:20:44.963Z,24.70
2022-09-28T07:23:19.801Z,24.70
2022-09-28T07:26:09.041Z,24.80
2022-09-28T07:28:56.144Z,24.80
2022-09-28T07:31:43.426Z,24.90
2022-09-28T07:34:34.472Z,24.90
2022-09-28T07:37:12.271Z,24.90
2022-09-28T07:39:41.536Z,24.90
2022-09-28T07:42:09.938Z,24.90
2022-09-28T07:44:38.094Z,25.00
2022-09-28T07:47:06.341Z,25.00
2022-09-28T07:49:57.680Z,25.10
2022-09-28T07:52:45.978Z,25.10
2022-09-28T07:55:40.129Z,25.10
2022-09-28T07:58:34.351Z,25.10
2022-09-28T08:01:31.622Z,25.20
2022-09-28T08:04:01.417Z,25.30
2022-09-28T08:06:31.289Z,25.30
2022-09-28T08:08:59.724Z,25.40
2022-09-28T08:11:47.807Z,25.40
2022-09-28T08:14:25.369Z,25.50
2022-09-28T08:17:05.180Z,25.60
2022-09-28T08:19:41.788Z,25.60
2022-09-28T08:22:10.080Z,25.70
2022-09-28T08:24:38.590Z,25.70
2022-09-28T08:27:07.312Z,25.70
2022-09-28T08:29:36.447Z,25.80
2022-09-28T08:32:36.792Z,25.80
2022-09-28T08:35:23.321Z,25.90
2022-09-28T08:38:09.147Z,25.90
2022-09-28T08:41:08.935Z,25.90
2022-09-28T08:44:17.459Z,26.00
2022-09-28T08:47:34.454Z,26.00
2022-09-28T08:50:22.373Z,26.10
2022-09-28T08:53:23.996Z,26.20
2022-09-28T08:57:02.074Z,26.30
2022-09-28T08:59:59.166Z,26.30
2022-09-28T09:02:37.904Z,26.40
2022-09-28T09:05:24.048Z,26.50
2022-09-28T09:08:13.906Z,26.60
2022-09-28T09:10:53.153Z,26.70
2022-09-28T09:14:03.066Z,26.90
2022-09-28T09:16:47.327Z,27.00
2022-09-28T09:20:23.166Z,27.00
2022-09-28T09:23:06.779Z,27.20
2022-09-28T09:25:43.351Z,27.20
2022-09-28T09:28:37.724Z,27.20
2022-09-28T09:31:36.194Z,27.20
2022-09-28T09:34:06.797Z,27.20
2022-09-28T09:37:11.239Z,27.20
2022-09-28T09:39:54.752Z,27.20
2022-09-28T09:43:02.756Z,27.20
2022-09-28T09:46:29.431Z,27.30
2022-09-28T09:49:25.198Z,27.50
2022-09-28T09:52:24.889Z,27.60
2022-09-28T09:54:57.671Z,27.60
2022-09-28T09:57:52.282Z,27.70
2022-09-28T10:00:36.799Z,27.80
2022-09-28T10:03:20.810Z,27.80
2022-09-28T10:05:56.760Z,27.80
2022-09-28T10:08:27.576Z,27.80
2022-09-28T10:11:16.127Z,27.80
2022-09-28T10:13:49.377Z,27.70
2022-09-28T10:16:40.727Z,27.60
2022-09-28T10:19:17.508Z,27.50
2022-09-28T10:22:07.518Z,27.40
2022-09-28T10:24:41.610Z,27.40
2022-09-28T10:27:19.256Z,27.40
2022-09-28T10:29:54.514Z,27.50
2022-09-28T10:32:25.954Z,27.40
2022-09-28T10:35:14.886Z,27.40
2022-09-28T10:38:01.906Z,27.40
2022-09-28T10:41:00.367Z,27.50
2022-09-28T10:43:58.256Z,27.60
2022-09-28T10:46:26.882Z,27.60
2022-09-28T10:49:03.563Z,27.60
2022-09-28T10:51:44.527Z,27.60
2022-09-28T10:54:26.022Z,27.50
2022-09-28T10:56:55.971Z,27.50
2022-09-28T10:59:46.872Z,27.40
2022-09-28T11:02:41.855Z,27.40
2022-09-28T11:05:25.965Z,27.30
2022-09-28T11:08:00.941Z,27.20
2022-09-28T11:10:36.886Z,27.20
2022-09-28T11:13:15.650Z,27.20
2022-09-28T11:15:51.571Z,27.10
2022-09-28T11:21:44.621Z,26.90
2022-09-28T11:24:19.140Z,26.90
2022-09-28T11:26:56.683Z,26.80
2022-09-28T11:29:43.929Z,26.90
2022-09-28T11:32:18.167Z,27.10
2022-09-28T11:35:07.495Z,27.30
2022-09-28T11:37:45.344Z,27.30
2022-09-28T11:40:34.792Z,27.20
2022-09-28T11:43:03.107Z,27.30
2022-09-28T11:45:31.599Z,27.40
2022-09-28T11:48:09.947Z,27.40
2022-09-28T11:50:50.671Z,27.50
2022-09-28T11:53:39.777Z,27.70
2022-09-28T11:56:28.867Z,27.80
2022-09-28T11:59:13.177Z,27.80
2022-09-28T12:02:21.255Z,28.10
2022-09-28T12:05:03.605Z,28.20
2022-09-28T12:07:41.033Z,28.20
2022-09-28T12:10:21.295Z,28.00
2022-09-28T12:13:22.671Z,27.80
2022-09-28T12:19:46.983Z,26.90
2022-09-28T12:22:40.099Z,26.70
2022-09-28T12:25:16.805Z,26.70
2022-09-28T12:27:53.908Z,26.70
2022-09-28T12:30:24.187Z,26.40
2022-09-28T12:33:06.288Z,26.40
2022-09-28T12:36:02.021Z,26.20
2022-09-28T12:39:18.076Z,26.20
2022-09-28T12:42:13.415Z,26.30
2022-09-28T12:45:06.733Z,26.60
2022-09-28T12:47:47.376Z,26.70
2022-09-28T12:50:42.706Z,26.80
2022-09-28T12:53:38.201Z,27.10
2022-09-28T12:56:16.824Z,27.30
2022-09-28T12:58:56.608Z,27.40
2022-09-28T13:01:58.997Z,27.50
2022-09-28T13:04:27.265Z,27.60
2022-09-28T13:07:14.174Z,27.60
2022-09-28T13:09:54.612Z,27.50
2022-09-28T13:12:31.177Z,27.50
2022-09-28T13:15:17.412Z,27.50
2022-09-28T13:17:54.689Z,27.50
2022-09-28T13:20:44.659Z,27.50
2022-09-28T13:23:24.410Z,27.40
2022-09-28T13:26:22.025Z,27.50
2022-09-28T13:28:53.094Z,27.80
2022-09-28T13:31:29.148Z,27.80
2022-09-28T13:34:04.188Z,27.70
2022-09-28T13:36:32.462Z,27.80
2022-09-28T13:39:01.416Z,27.90
2022-09-28T13:41:34.215Z,28.10
2022-09-28T13:44:11.951Z,28.20
2022-09-28T13:46:51.965Z,28.50
2022-09-28T13:49:41.806Z,28.50
2022-09-28T13:52:55.132Z,28.30
2022-09-28T13:55:33.629Z,28.30
2022-09-28T13:58:20.486Z,28.30
2022-09-28T14:01:00.409Z,28.40
2022-09-28T14:03:54.516Z,28.40
2022-09-28T14:06:25.818Z,28.40
2022-09-28T14:09:18.723Z,28.30
2022-09-28T14:12:01.852Z,28.40
2022-09-28T14:14:48.634Z,28.50
2022-09-28T14:17:22.913Z,28.40
2022-09-28T14:20:00.858Z,28.70
2022-09-28T14:22:55.386Z,28.70
2022-09-28T14:25:43.897Z,28.70
2022-09-28T14:28:41.985Z,28.70
2022-09-28T14:31:18.052Z,28.70
2022-09-28T14:33:59.058Z,28.60
2022-09-28T14:36:36.540Z,28.80
2022-09-28T14:39:05.063Z,28.80
2022-09-28T14:41:38.853Z,29.00
2022-09-28T14:44:12.241Z,28.90
2022-09-28T14:46:48.337Z,28.70
2022-09-28T14:49:19.697Z,28.40
2022-09-28T14:51:57.127Z,28.40
2022-09-28T14:54:38.210Z,28.20
2022-09-28T14:57:31.713Z,27.90
2022-09-28T15:00:01.229Z,27.90
2022-09-28T15:02:33.484Z,27.80
2022-09-28T15:05:07.586Z,27.90
2022-09-28T15:07:53.420Z,27.90
2022-09-28T15:10:37.266Z,28.20
2022-09-28T15:13:27.185Z,28.10
2022-09-28T15:16:17.213Z,28.10
2022-09-28T15:19:12.954Z,28.20
2022-09-28T15:21:43.133Z,28.20
2022-09-28T15:24:29.725Z,28.30
2022-09-28T15:26:58.442Z,28.40
2022-09-28T15:29:27.269Z,28.50
2022-09-28T15:31:55.631Z,28.80
2022-09-28T15:34:32.047Z,28.90
2022-09-28T15:37:00.655Z,28.80
2022-09-28T15:39:33.409Z,29.00
2022-09-28T15:42:01.890Z,29.30
2022-09-28T15:44:33.345Z,29.50
2022-09-28T15:47:28.392Z,30.00
2022-09-28T15:50:20.125Z,30.10
2022-09-28T15:52:57.857Z,30.40
2022-09-28T15:55:36.510Z,30.50
2022-09-28T15:58:21.901Z,30.90
2022-09-28T16:00:52.366Z,30.80
2022-09-28T16:03:29.602Z,31.10
2022-09-28T16:06:10.979Z,31.90
2022-09-28T16:08:44.791Z,32.40
2022-09-28T16:11:24.820Z,32.50
2022-09-28T16:14:05.880Z,32.60
2022-09-28T16:16:39.526Z,33.10
2022-09-28T16:19:36.687Z,33.20
2022-09-28T16:22:08.417Z,33.10
2022-09-28T16:24:37.506Z,33.20
2022-09-28T16:27:28.665Z,33.40
2022-09-28T16:30:23.104Z,33.30
2022-09-28T16:33:24.332Z,33.90
2022-09-28T16:35:53.260Z,33.60
2022-09-28T16:38:21.619Z,32.80
2022-09-28T16:40:52.675Z,32.30
2022-09-28T16:43:32.433Z,32.90
2022-09-28T16:46:09.536Z,33.10
2022-09-28T16:48:48.786Z,32.90
2022-09-28T16:51:21.306Z,32.70
2022-09-28T16:53:49.662Z,32.40
2022-09-28T16:56:17.935Z,32.40
2022-09-28T16:58:46.087Z,33.20
2022-09-28T17:01:14.303Z,32.60
2022-09-28T17:03:42.571Z,32.00
2022-09-28T17:06:13.543Z,30.90
2022-09-28T17:08:41.739Z,30.20
2022-09-28T17:11:17.958Z,29.70
2022-09-28T17:13:48.709Z,29.40
2022-09-28T17:16:49.353Z,28.70
2022-09-28T17:19:19.232Z,28.40
2022-09-28T17:21:48.057Z,28.20
2022-09-28T17:24:16.357Z,28.00
2022-09-28T17:26:46.262Z,27.80
2022-09-28T17:29:15.685Z,27.60
2022-09-28T17:31:45.407Z,27.50
2022-09-28T17:34:15.315Z,27.50
2022-09-28T17:36:44.912Z,27.40
2022-09-28T17:42:04.015Z,27.20
2022-09-28T17:44:32.382Z,27.20
2022-09-28T17:47:00.604Z,27.20
2022-09-28T17:49:28.635Z,27.10
2022-09-28T17:51:56.973Z,27.10
2022-09-28T17:54:25.350Z,27.20
2022-09-28T17:56:53.881Z,27.20
2022-09-28T17:59:22.104Z,27.10
2022-09-28T18:01:50.299Z,27.10
2022-09-28T18:04:47.199Z,27.20
2022-09-28T18:07:06.756Z,27.20
2022-09-28T18:09:34.999Z,27.30
2022-09-28T18:12:05.730Z,27.30
2022-09-28T18:14:34.021Z,27.20
2022-09-28T18:17:02.147Z,27.20
2022-09-28T18:19:32.367Z,27.10
2022-09-28T18:22:01.007Z,27.10
2022-09-28T18:24:29.292Z,26.90
2022-09-28T18:26:57.622Z,26.90
2022-09-28T18:29:26.709Z,26.80
2022-09-28T18:31:56.219Z,26.90
2022-09-28T18:34:24.643Z,26.80
2022-09-28T18:36:52.809Z,26.80
2022-09-28T18:39:21.057Z,26.80
2022-09-28T18:41:49.172Z,26.70
2022-09-28T18:44:17.328Z,26.60
2022-09-28T18:46:45.625Z,26.60
2022-09-28T18:49:13.778Z,26.60
2022-09-28T18:51:42.034Z,26.60
2022-09-28T18:54:10.241Z,26.60
2022-09-28T18:56:38.485Z,26.70
2022-09-28T18:59:11.942Z,26.70
2022-09-28T19:01:41.053Z,26.70
2022-09-28T19:04:11.011Z,26.70
2022-09-28T19:06:40.873Z,26.70
2022-09-28T19:09:09.501Z,26.70
2022-09-28T19:11:37.988Z,26.70
2022-09-28T19:14:06.208Z,26.60
2022-09-28T19:16:34.316Z,26.60
2022-09-28T19:19:02.673Z,26.60
2022-09-28T19:21:30.991Z,26.50
2022-09-28T19:24:03.136Z,26.50
2022-09-28T19:26:31.146Z,26.50
2022-09-28T19:29:00.112Z,26.50
2022-09-28T19:31:28.913Z,26.40
2022-09-28T19:33:57.472Z,26.40
2022-09-28T19:36:26.995Z,26.50
2022-09-28T19:38:56.942Z,26.50
2022-09-28T19:41:27.720Z,26.50
2022-09-28T19:43:55.859Z,26.40
2022-09-28T19:46:24.179Z,26.40
2022-09-28T19:48:52.510Z,26.40
2022-09-28T19:51:20.686Z,26.40
2022-09-28T19:53:48.795Z,26.40
2022-09-28T19:56:17.097Z,26.40
2022-09-28T19:58:45.270Z,26.40
2022-09-28T20:01:13.739Z,26.40
2022-09-28T20:03:42.006Z,26.40
2022-09-28T20:06:13.824Z,26.40
2022-09-28T20:08:44.893Z,26.50
2022-09-28T20:11:13.007Z,26.50
2022-09-28T20:13:41.173Z,26.50
2022-09-28T20:16:11.963Z,26.50
2022-09-28T20:18:42.115Z,26.50
2022-09-28T20:21:15.941Z,26.50
2022-09-28T20:23:46.665Z,26.50
2022-09-28T20:26:16.182Z,26.50
2022-09-28T20:28:44.624Z,26.40
2022-09-28T20:31:17.306Z,26.50
2022-09-28T20:33:45.691Z,26.40
2022-09-28T20:36:19.766Z,26.40
2022-09-28T20:38:49.755Z,26.50
2022-09-28T20:42:22.458Z,26.40
2022-09-28T20:44:50.877Z,26.40
2022-09-28T20:47:19.309Z,26.40
2022-09-28T20:49:47.533Z,26.30
2022-09-28T20:52:15.905Z,26.40
2022-09-28T20:54:44.088Z,26.40
2022-09-28T20:57:12.351Z,26.40
2022-09-28T20:59:40.555Z,26.40
2022-09-28T21:02:11.999Z,26.40
2022-09-28T21:04:40.226Z,26.40
2022-09-28T21:07:09.379Z,26.40
2022-09-28T21:09:40.705Z,26.40
2022-09-28T21:12:08.849Z,26.50
2022-09-28T21:14:37.001Z,26.40
2022-09-28T21:17:05.204Z,26.50
2022-09-28T21:19:34.738Z,26.40
2022-09-28T21:22:03.011Z,26.30
2022-09-28T21:24:31.156Z,26.30
2022-09-28T21:26:59.291Z,26.30
2022-09-28T21:29:27.702Z,26.30
2022-09-28T21:31:55.798Z,26.30
2022-09-28T21:34:24.104Z,26.30
2022-09-28T21:36:52.711Z,26.30
2022-09-28T21:39:21.080Z,26.30
2022-09-28T21:41:49.540Z,26.30
2022-09-28T21:44:17.791Z,26.30
2022-09-28T21:46:46.042Z,26.30
2022-09-28T21:49:14.419Z,26.30
2022-09-28T21:51:42.725Z,26.30
2022-09-28T21:54:10.863Z,26.30
2022-09-28T21:56:39.097Z,26.20
2022-09-28T21:59:07.391Z,26.20
2022-09-28T22:01:35.704Z,26.20
2022-09-28T22:04:04.576Z,26.20
2022-09-28T22:06:32.964Z,26.20
2022-09-28T22:09:01.037Z,26.30
2022-09-28T22:11:29.821Z,26.20
2022-09-28T22:13:59.770Z,26.20
2022-09-28T22:16:30.906Z,26.20
2022-09-28T22:18:59.921Z,26.20
2022-09-28T22:21:32.916Z,26.20
2022-09-28T22:24:03.545Z,26.10
2022-09-28T22:26:33.407Z,26.10
2022-09-28T22:29:04.659Z,26.20
2022-09-28T22:31:36.311Z,26.10
2022-09-28T22:34:05.960Z,26.10
2022-09-28T22:36:34.840Z,26.10
2022-09-28T22:39:03.680Z,26.10
2022-09-28T22:41:32.463Z,26.10
2022-09-28T22:44:01.029Z,26.10
2022-09-28T22:46:30.372Z,26.10
2022-09-28T22:49:00.013Z,26.10
2022-09-28T22:51:29.780Z,26.10
2022-09-28T22:53:58.293Z,26.20
2022-09-28T22:56:26.642Z,26.10
2022-09-28T22:58:55.179Z,26.10
2022-09-28T23:01:26.558Z,26.10
2022-09-28T23:03:56.202Z,26.10
2022-09-28T23:06:26.836Z,26.10
2022-09-28T23:08:55.056Z,26.10
2022-09-28T23:11:23.499Z,26.10
2022-09-28T23:13:53.259Z,26.10
2022-09-28T23:16:22.025Z,26.10
2022-09-28T23:18:50.118Z,26.10
2022-09-28T23:21:20.355Z,26.10
2022-09-28T23:23:54.022Z,26.10
2022-09-28T23:26:26.493Z,26.00
2022-09-28T23:28:55.079Z,26.00
2022-09-28T23:31:29.072Z,26.00
2022-09-28T23:34:05.845Z,26.00
2022-09-28T23:36:34.762Z,26.10
2022-09-28T23:39:03.392Z,26.00
2022-09-28T23:41:31.707Z,26.10
2022-09-28T23:43:59.964Z,26.00
2022-09-28T23:46:28.201Z,26.00
2022-09-28T23:48:56.589Z,25.90
2022-09-28T23:51:24.808Z,26.00
2022-09-28T23:53:53.094Z,25.90
2022-09-28T23:56:21.392Z,25.90
2022-09-28T23:58:49.451Z,25.90
